Time;durP1;ratioP1;P1;durP2;ratioP2;P2;SDS_P1;SDS_P2;PMS_P1;PMS_P2;Temp;Humidity;BMP_temperature;BMP_pressure;BME280_temperature;BME280_humidity;BME280_pressure;Samples;Min_cycle;Max_cycle;Signal;HPM_P1;HPM_P2
2022/01/11 00:01:01;;;;;;;38.70;25.52;;;;;;;;;;5090736;28;20032;-77
2022/01/11 00:03:27;;;;;;;37.47;23.80;;;;;;;;;;5099946;28;20036;-77
2022/01/11 00:08:28;;;;;;;33.63;23.98;;;;;;;;;;5111677;28;20036;-77
2022/01/11 00:11:02;;;;;;;34.80;24.50;;;;;;;;;;5109163;28;20395;-76
2022/01/11 00:13:28;;;;;;;35.42;24.42;;;;;;;;;;5101071;28;20166;-76
2022/01/11 00:15:54;;;;;;;35.47;22.65;;;;;;;;;;5073685;28;20090;-76
2022/01/11 00:18:20;;;;;;;35.50;23.40;;;;;;;;;;5090672;28;20432;-76
2022/01/11 00:20:46;;;;;;;32.70;19.65;;;;;;;;;;5090436;28;20086;-76
2022/01/11 00:25:43;;;;;;;30.38;20.25;;;;;;;;;;5090745;28;20123;-76
2022/01/11 00:28:09;;;;;;;31.85;20.40;;;;;;;;;;5089663;28;20048;-77
2022/01/11 00:30:39;;;;;;;30.90;20.98;;;;;;;;;;5090263;28;20130;-76
2022/01/11 00:33:09;;;;;;;31.52;21.40;;;;;;;;;;5090460;28;20089;-76
2022/01/11 00:35:49;;;;;;;35.90;22.35;;;;;;;;;;5090678;28;20067;-76
2022/01/11 00:38:18;;;;;;;30.73;21.55;;;;;;;;;;5090293;28;20043;-75
2022/01/11 00:40:48;;;;;;;34.90;22.23;;;;;;;;;;5090647;28;20035;-75
2022/01/11 00:43:19;;;;;;;35.70;19.08;;;;;;;;;;5095822;28;20454;-76
2022/01/11 00:45:45;;;;;;;28.83;18.17;;;;;;;;;;5072817;28;20119;-75
2022/01/11 00:48:11;;;;;;;30.10;18.85;;;;;;;;;;5090364;28;20058;-75
2022/01/11 00:50:37;;;;;;;29.23;18.73;;;;;;;;;;5090769;28;20373;-75
2022/01/11 00:53:07;;;;;;;32.53;17.83;;;;;;;;;;5094620;28;20073;-75
2022/01/11 00:55:34;;;;;;;32.30;20.35;;;;;;;;;;5111117;28;20039;-75
2022/01/11 00:58:02;;;;;;;26.30;18.05;;;;;;;;;;5110522;28;20052;-75
2022/01/11 01:00:28;;;;;;;29.50;19.77;;;;;;;;;;5091144;28;20551;-75
2022/01/11 01:02:54;;;;;;;29.13;19.98;;;;;;;;;;5097210;28;20071;-75
2022/01/11 01:05:21;;;;;;;28.60;17.90;;;;;;;;;;5110107;28;20086;-75
2022/01/11 01:07:47;;;;;;;25.92;17.48;;;;;;;;;;5095616;28;20051;-75
2022/01/11 01:10:26;;;;;;;28.52;18.55;;;;;;;;;;5090077;28;20055;-75
2022/01/11 01:12:56;;;;;;;27.90;18.10;;;;;;;;;;5096190;28;20050;-75
2022/01/11 01:15:23;;;;;;;24.38;17.25;;;;;;;;;;5107685;28;20036;-75
2022/01/11 01:17:49;;;;;;;28.65;17.08;;;;;;;;;;5090153;28;20392;-75
2022/01/11 01:20:15;;;;;;;25.10;17.75;;;;;;;;;;5089901;28;20135;-75
2022/01/11 01:22:41;;;;;;;24.58;16.75;;;;;;;;;;5095361;28;20044;-75
2022/01/11 01:25:07;;;;;;;34.60;17.08;;;;;;;;;;5093542;28;20074;-75
2022/01/11 01:27:33;;;;;;;24.50;16.27;;;;;;;;;;5110337;28;20044;-75
2022/01/11 01:29:59;;;;;;;23.25;15.27;;;;;;;;;;5109818;28;20491;-74
2022/01/11 01:32:26;;;;;;;27.92;16.10;;;;;;;;;;5109705;28;20158;-74
2022/01/11 01:34:54;;;;;;;27.02;16.33;;;;;;;;;;5076366;28;20477;-74
2022/01/11 01:37:20;;;;;;;28.33;18.17;;;;;;;;;;5077065;28;20393;-74
2022/01/11 01:39:46;;;;;;;29.27;16.48;;;;;;;;;;5093748;28;20489;-74
2022/01/11 01:42:12;;;;;;;24.35;15.50;;;;;;;;;;5076997;28;20056;-74
2022/01/11 01:44:41;;;;;;;29.50;17.70;;;;;;;;;;5114241;28;20071;-74
2022/01/11 01:47:08;;;;;;;26.40;16.05;;;;;;;;;;5111063;28;20434;-75
2022/01/11 01:49:38;;;;;;;28.17;17.60;;;;;;;;;;5093295;28;20044;-75
2022/01/11 01:52:04;;;;;;;29.38;16.80;;;;;;;;;;5110134;28;20040;-75
2022/01/11 01:54:31;;;;;;;32.05;16.95;;;;;;;;;;5096171;28;20046;-74
2022/01/11 01:56:57;;;;;;;26.88;15.93;;;;;;;;;;5113756;28;20094;-74
2022/01/11 01:59:23;;;;;;;31.05;17.02;;;;;;;;;;5113646;28;20043;-74
2022/01/11 02:01:49;;;;;;;29.23;16.27;;;;;;;;;;5098434;28;20051;-75
2022/01/11 02:04:17;;;;;;;23.55;16.35;;;;;;;;;;5077941;28;20135;-75
2022/01/11 02:06:43;;;;;;;23.70;14.85;;;;;;;;;;5093420;28;20051;-74
2022/01/11 02:09:11;;;;;;;27.27;15.30;;;;;;;;;;5092314;28;20036;-74
2022/01/11 02:11:37;;;;;;;30.13;15.90;;;;;;;;;;5076981;28;20066;-74
2022/01/11 02:14:03;;;;;;;26.80;15.93;;;;;;;;;;5106260;28;20093;-74
2022/01/11 02:16:29;;;;;;;25.27;15.55;;;;;;;;;;5094151;28;20036;-75
2022/01/11 02:18:55;;;;;;;26.05;15.43;;;;;;;;;;5092859;28;20052;-74
2022/01/11 02:21:21;;;;;;;26.70;16.25;;;;;;;;;;5093375;28;20056;-74
2022/01/11 02:23:49;;;;;;;25.80;15.07;;;;;;;;;;5092778;28;20120;-74
2022/01/11 02:26:16;;;;;;;26.13;15.02;;;;;;;;;;5092911;28;20048;-74
2022/01/11 02:28:42;;;;;;;27.08;14.95;;;;;;;;;;5093126;28;20063;-74
2022/01/11 02:31:12;;;;;;;23.52;15.07;;;;;;;;;;5091851;28;20040;-75
2022/01/11 02:33:42;;;;;;;26.70;16.23;;;;;;;;;;5076336;28;20041;-74
2022/01/11 02:36:12;;;;;;;30.27;16.23;;;;;;;;;;5092457;28;20581;-74
2022/01/11 02:38:38;;;;;;;25.77;15.07;;;;;;;;;;5093587;28;20085;-74
2022/01/11 02:41:04;;;;;;;26.92;16.45;;;;;;;;;;5092568;28;20067;-74
2022/01/11 02:43:30;;;;;;;26.55;16.50;;;;;;;;;;5092714;28;20097;-74
2022/01/11 02:46:00;;;;;;;26.75;15.10;;;;;;;;;;5091399;28;20050;-77
2022/01/11 02:48:26;;;;;;;27.17;17.27;;;;;;;;;;5109071;28;20497;-76
2022/01/11 02:50:52;;;;;;;27.63;16.30;;;;;;;;;;5092006;28;20546;-76
2022/01/11 02:53:18;;;;;;;25.00;16.83;;;;;;;;;;5092985;28;20065;-75
2022/01/11 02:55:45;;;;;;;27.25;16.38;;;;;;;;;;5075709;28;20051;-74
2022/01/11 02:58:11;;;;;;;28.70;17.20;;;;;;;;;;5089526;28;20040;-75
2022/01/11 03:00:41;;;;;;;30.15;16.50;;;;;;;;;;5082969;28;20043;-74
2022/01/11 03:03:11;;;;;;;27.05;15.55;;;;;;;;;;5075173;28;20055;-75
2022/01/11 03:05:38;;;;;;;32.40;17.35;;;;;;;;;;5091871;28;20039;-74
2022/01/11 03:08:04;;;;;;;26.95;16.95;;;;;;;;;;5087812;28;20051;-74
2022/01/11 03:10:33;;;;;;;26.60;15.93;;;;;;;;;;5095638;28;20176;-73
2022/01/11 03:13:03;;;;;;;28.27;16.50;;;;;;;;;;5111541;28;20035;-74
2022/01/11 03:15:30;;;;;;;30.38;17.48;;;;;;;;;;5098090;28;20480;-74
2022/01/11 03:17:56;;;;;;;26.63;16.73;;;;;;;;;;5103152;28;20074;-74
2022/01/11 03:20:22;;;;;;;32.67;17.42;;;;;;;;;;5112321;28;20052;-74
2022/01/11 03:22:48;;;;;;;27.98;16.98;;;;;;;;;;5094963;28;20075;-74
2022/01/11 03:25:16;;;;;;;24.35;16.27;;;;;;;;;;5101045;28;20053;-76
2022/01/11 03:27:42;;;;;;;27.40;16.67;;;;;;;;;;5100716;28;20074;-74
2022/01/11 03:30:08;;;;;;;33.60;16.20;;;;;;;;;;5098120;28;20039;-75
2022/01/11 03:32:34;;;;;;;27.90;17.77;;;;;;;;;;5091923;28;20040;-74
2022/01/11 03:35:01;;;;;;;29.20;17.88;;;;;;;;;;5090876;28;20032;-75
2022/01/11 03:37:27;;;;;;;27.35;16.30;;;;;;;;;;5098544;28;20068;-74
2022/01/11 03:39:53;;;;;;;30.50;16.10;;;;;;;;;;5111544;28;20043;-74
2022/01/11 03:42:19;;;;;;;30.48;17.98;;;;;;;;;;5095814;28;20047;-74
2022/01/11 03:44:45;;;;;;;31.05;17.10;;;;;;;;;;5091386;28;20036;-75
2022/01/11 03:47:11;;;;;;;30.85;16.90;;;;;;;;;;5082752;28;20404;-75
2022/01/11 03:49:37;;;;;;;29.17;17.05;;;;;;;;;;5111801;28;20043;-75
2022/01/11 03:52:03;;;;;;;28.17;17.00;;;;;;;;;;5111248;28;20074;-75
2022/01/11 03:54:43;;;;;;;31.38;17.90;;;;;;;;;;5110997;28;20487;-75
2022/01/11 03:57:09;;;;;;;32.22;18.17;;;;;;;;;;5078442;28;20036;-75
2022/01/11 03:59:35;;;;;;;33.58;18.00;;;;;;;;;;5091367;28;20044;-74
2022/01/11 04:02:01;;;;;;;31.35;18.30;;;;;;;;;;5090540;28;20440;-74
2022/01/11 04:04:27;;;;;;;30.98;17.50;;;;;;;;;;5091178;28;20052;-74
2022/01/11 04:06:53;;;;;;;31.90;17.83;;;;;;;;;;5079124;28;20044;-74
2022/01/11 04:09:20;;;;;;;33.95;18.23;;;;;;;;;;5111106;28;20059;-74
2022/01/11 04:11:46;;;;;;;34.47;19.88;;;;;;;;;;5111316;28;20480;-74
2022/01/11 04:14:12;;;;;;;36.78;19.98;;;;;;;;;;5103961;28;20504;-74
2022/01/11 04:16:38;;;;;;;34.20;19.15;;;;;;;;;;5090766;28;20042;-74
2022/01/11 04:19:04;;;;;;;30.95;20.17;;;;;;;;;;5090314;28;20130;-74
2022/01/11 04:21:30;;;;;;;33.35;19.52;;;;;;;;;;5091216;28;20043;-74
2022/01/11 04:23:56;;;;;;;32.40;19.23;;;;;;;;;;5090051;28;20109;-75
2022/01/11 04:26:22;;;;;;;35.85;19.70;;;;;;;;;;5090952;28;20044;-77
2022/01/11 04:28:48;;;;;;;33.53;19.20;;;;;;;;;;5091300;28;20043;-76
2022/01/11 04:31:14;;;;;;;35.38;19.63;;;;;;;;;;5073613;28;20092;-76
2022/01/11 04:33:43;;;;;;;36.35;18.40;;;;;;;;;;5090974;28;20040;-76
2022/01/11 04:36:09;;;;;;;35.45;20.13;;;;;;;;;;5090564;28;20036;-76
2022/01/11 04:38:35;;;;;;;32.78;19.10;;;;;;;;;;5090753;28;20046;-76
2022/01/11 04:41:02;;;;;;;33.85;19.23;;;;;;;;;;5090140;28;20455;-76
2022/01/11 04:43:28;;;;;;;37.72;19.73;;;;;;;;;;5090438;28;20039;-76
2022/01/11 04:45:54;;;;;;;35.85;19.15;;;;;;;;;;5073764;28;20039;-76
2022/01/11 04:48:20;;;;;;;33.42;19.50;;;;;;;;;;5074617;28;20036;-76
2022/01/11 04:50:46;;;;;;;34.88;19.70;;;;;;;;;;5090008;28;20119;-76
2022/01/11 04:53:12;;;;;;;34.65;19.90;;;;;;;;;;5090566;28;20051;-76
2022/01/11 04:55:38;;;;;;;36.33;19.17;;;;;;;;;;5091184;28;20385;-76
2022/01/11 04:58:04;;;;;;;36.60;19.75;;;;;;;;;;5102337;28;20062;-75
2022/01/11 05:00:30;;;;;;;34.72;18.98;;;;;;;;;;5090175;28;20484;-75
2022/01/11 05:02:58;;;;;;;31.92;18.80;;;;;;;;;;5090106;28;20040;-75
2022/01/11 05:05:26;;;;;;;34.60;19.95;;;;;;;;;;5091139;28;20109;-75
2022/01/11 05:07:52;;;;;;;35.80;18.52;;;;;;;;;;5094109;28;20092;-76
2022/01/11 05:10:18;;;;;;;30.88;16.70;;;;;;;;;;5094172;28;20040;-75
2022/01/11 05:12:44;;;;;;;37.55;19.45;;;;;;;;;;5094299;28;20100;-75
2022/01/11 05:15:11;;;;;;;33.47;18.63;;;;;;;;;;5076683;28;20033;-75
2022/01/11 05:17:37;;;;;;;39.75;20.35;;;;;;;;;;5094091;28;20047;-76
2022/01/11 05:20:04;;;;;;;35.55;18.92;;;;;;;;;;5093170;28;20043;-79
2022/01/11 05:22:30;;;;;;;32.22;19.13;;;;;;;;;;5094303;28;20039;-79
2022/01/11 05:24:56;;;;;;;37.65;19.10;;;;;;;;;;5077213;28;20412;-79
2022/01/11 05:27:22;;;;;;;31.60;17.38;;;;;;;;;;5094106;28;20036;-77
2022/01/11 05:29:48;;;;;;;37.75;19.83;;;;;;;;;;5077866;28;20155;-78
2022/01/11 05:32:14;;;;;;;36.00;18.88;;;;;;;;;;5093851;28;20488;-76
2022/01/11 05:34:40;;;;;;;36.03;19.55;;;;;;;;;;5093629;28;20477;-75
2022/01/11 05:37:06;;;;;;;33.13;18.85;;;;;;;;;;5093136;28;20040;-75
2022/01/11 05:39:32;;;;;;;36.65;19.40;;;;;;;;;;5093831;28;20044;-75
2022/01/11 05:41:59;;;;;;;33.78;19.75;;;;;;;;;;5093719;28;20040;-75
2022/01/11 05:44:25;;;;;;;33.33;18.73;;;;;;;;;;5093904;28;20074;-76
2022/01/11 05:46:51;;;;;;;30.90;17.85;;;;;;;;;;5094007;28;20460;-76
2022/01/11 05:49:17;;;;;;;35.17;18.65;;;;;;;;;;5094099;28;20048;-75
2022/01/11 05:51:43;;;;;;;32.05;18.00;;;;;;;;;;5094391;28;20430;-75
2022/01/11 05:54:10;;;;;;;33.00;18.23;;;;;;;;;;5092988;28;20519;-75
2022/01/11 05:56:36;;;;;;;33.92;18.00;;;;;;;;;;5093681;28;20036;-75
2022/01/11 05:59:02;;;;;;;34.75;18.25;;;;;;;;;;5087146;28;20176;-75
2022/01/11 06:01:28;;;;;;;37.72;17.95;;;;;;;;;;5110938;28;20043;-75
2022/01/11 06:03:54;;;;;;;35.55;18.98;;;;;;;;;;5112986;28;20047;-75
2022/01/11 06:06:20;;;;;;;31.98;17.55;;;;;;;;;;5095933;28;20397;-78
2022/01/11 06:08:48;;;;;;;34.83;16.98;;;;;;;;;;5074911;28;20489;-75
2022/01/11 06:11:14;;;;;;;33.63;18.52;;;;;;;;;;5076106;28;20036;-75
2022/01/11 06:13:40;;;;;;;36.08;16.30;;;;;;;;;;5093997;28;20138;-75
2022/01/11 06:16:07;;;;;;;33.92;16.98;;;;;;;;;;5092321;28;20120;-75
2022/01/11 06:18:34;;;;;;;29.27;16.25;;;;;;;;;;5092661;28;20523;-76
2022/01/11 06:21:00;;;;;;;29.80;16.55;;;;;;;;;;5092826;28;20040;-75
2022/01/11 06:23:26;;;;;;;29.13;16.02;;;;;;;;;;5093344;28;20128;-75
2022/01/11 06:25:52;;;;;;;30.30;16.65;;;;;;;;;;5092867;28;20185;-73
2022/01/11 06:28:18;;;;;;;34.95;17.50;;;;;;;;;;5093199;28;20500;-74
2022/01/11 06:30:44;;;;;;;33.35;16.25;;;;;;;;;;5092061;28;20087;-74
2022/01/11 06:33:10;;;;;;;30.27;14.93;;;;;;;;;;5075728;28;20043;-74
2022/01/11 06:35:36;;;;;;;30.95;17.55;;;;;;;;;;5092783;28;20465;-74
2022/01/11 06:38:02;;;;;;;30.70;16.08;;;;;;;;;;5091933;28;20054;-74
2022/01/11 06:40:28;;;;;;;28.42;17.10;;;;;;;;;;5075942;28;20130;-74
2022/01/11 06:42:54;;;;;;;25.63;14.55;;;;;;;;;;5092235;28;20118;-74
2022/01/11 06:45:24;;;;;;;30.58;16.23;;;;;;;;;;5075523;28;20036;-74
2022/01/11 06:47:51;;;;;;;32.45;15.38;;;;;;;;;;5092777;28;20044;-74
2022/01/11 06:50:18;;;;;;;30.10;17.27;;;;;;;;;;5092126;28;20398;-73
2022/01/11 06:52:44;;;;;;;30.42;15.60;;;;;;;;;;5076259;28;20035;-74
2022/01/11 06:55:10;;;;;;;36.67;17.08;;;;;;;;;;5074877;28;20036;-75
2022/01/11 06:57:36;;;;;;;31.10;15.10;;;;;;;;;;5096387;28;20039;-75
2022/01/11 07:00:05;;;;;;;29.70;15.63;;;;;;;;;;5112270;28;20044;-74
2022/01/11 07:02:31;;;;;;;28.85;16.60;;;;;;;;;;5112972;28;20091;-74
2022/01/11 07:04:57;;;;;;;27.77;15.23;;;;;;;;;;5107135;28;20093;-74
2022/01/11 07:07:23;;;;;;;26.40;15.57;;;;;;;;;;5091954;28;20043;-74
2022/01/11 07:09:49;;;;;;;31.50;15.05;;;;;;;;;;5101785;28;20055;-74
2022/01/11 07:12:15;;;;;;;30.60;15.93;;;;;;;;;;5103893;28;20411;-76
2022/01/11 07:14:41;;;;;;;26.63;15.25;;;;;;;;;;5089137;28;20036;-75
2022/01/11 07:17:07;;;;;;;27.10;15.13;;;;;;;;;;5088929;28;20048;-76
2022/01/11 07:19:34;;;;;;;24.23;14.48;;;;;;;;;;5088979;28;20048;-77
2022/01/11 07:22:00;;;;;;;29.75;17.13;;;;;;;;;;5092946;28;20048;-74
2022/01/11 07:24:27;;;;;;;29.08;15.52;;;;;;;;;;5082490;28;20135;-74
2022/01/11 07:26:53;;;;;;;28.00;15.20;;;;;;;;;;5088253;28;20504;-74
2022/01/11 07:29:19;;;;;;;30.77;16.17;;;;;;;;;;5085728;28;20105;-74
2022/01/11 07:31:45;;;;;;;28.92;15.30;;;;;;;;;;5089003;28;20122;-74
2022/01/11 07:34:11;;;;;;;29.52;15.35;;;;;;;;;;5071164;28;20235;-74
2022/01/11 07:36:38;;;;;;;34.80;16.10;;;;;;;;;;5089125;28;20420;-74
2022/01/11 07:39:05;;;;;;;27.95;16.13;;;;;;;;;;5088454;28;20488;-74
2022/01/11 07:41:31;;;;;;;32.30;16.27;;;;;;;;;;5071966;28;20443;-75
2022/01/11 07:43:57;;;;;;;33.63;16.75;;;;;;;;;;5088483;28;20052;-74
2022/01/11 07:46:26;;;;;;;33.58;16.58;;;;;;;;;;5087941;28;20101;-74
2022/01/11 07:48:52;;;;;;;31.13;15.90;;;;;;;;;;5087324;28;20105;-74
2022/01/11 07:51:18;;;;;;;27.27;15.48;;;;;;;;;;5088988;28;20044;-74
2022/01/11 07:53:44;;;;;;;31.65;16.38;;;;;;;;;;5088365;28;20079;-75
2022/01/11 07:56:10;;;;;;;30.30;16.48;;;;;;;;;;5087891;28;20390;-75
2022/01/11 07:58:36;;;;;;;29.30;16.85;;;;;;;;;;5090177;28;20044;-75
2022/01/11 08:01:03;;;;;;;29.23;16.95;;;;;;;;;;5080525;28;20047;-74
2022/01/11 08:03:29;;;;;;;28.25;15.02;;;;;;;;;;5071665;28;20559;-74
2022/01/11 08:05:55;;;;;;;27.75;16.17;;;;;;;;;;5088091;28;20044;-74
2022/01/11 08:08:21;;;;;;;31.75;17.30;;;;;;;;;;5088205;28;20093;-74
2022/01/11 08:10:47;;;;;;;26.85;16.05;;;;;;;;;;5087781;28;20382;-74
2022/01/11 08:13:13;;;;;;;27.58;14.90;;;;;;;;;;5088448;28;20032;-74
2022/01/11 08:15:39;;;;;;;25.95;15.40;;;;;;;;;;5087391;28;20032;-74
2022/01/11 08:18:05;;;;;;;28.40;15.63;;;;;;;;;;5096232;28;20040;-74
2022/01/11 08:20:32;;;;;;;29.70;17.48;;;;;;;;;;5088427;28;20504;-74
2022/01/11 08:22:58;;;;;;;32.63;15.25;;;;;;;;;;5086884;28;20093;-74
2022/01/11 08:25:25;;;;;;;27.25;15.05;;;;;;;;;;5088097;28;20048;-74
2022/01/11 08:27:51;;;;;;;25.77;14.38;;;;;;;;;;5070678;28;20058;-74
2022/01/11 08:30:18;;;;;;;29.38;15.85;;;;;;;;;;5097722;27;20037;-74
2022/01/11 08:32:44;;;;;;;30.00;14.85;;;;;;;;;;5068280;28;20040;-74
2022/01/11 08:35:10;;;;;;;32.22;16.10;;;;;;;;;;5067219;28;20039;-75
2022/01/11 08:37:37;;;;;;;26.75;14.43;;;;;;;;;;5067034;28;20052;-74
2022/01/11 08:40:04;;;;;;;27.23;16.77;;;;;;;;;;5067178;28;20052;-74
2022/01/11 08:42:30;;;;;;;30.15;17.02;;;;;;;;;;5087484;28;20056;-74
2022/01/11 08:44:56;;;;;;;29.35;15.60;;;;;;;;;;5070181;28;20044;-74
2022/01/11 08:47:22;;;;;;;28.67;16.60;;;;;;;;;;5087019;28;20040;-74
2022/01/11 08:49:48;;;;;;;30.55;16.00;;;;;;;;;;5070546;28;20044;-73
2022/01/11 08:52:14;;;;;;;30.33;15.85;;;;;;;;;;5087439;28;20047;-73
2022/01/11 08:54:40;;;;;;;28.83;16.50;;;;;;;;;;5071555;28;20051;-74
2022/01/11 08:57:07;;;;;;;29.58;15.43;;;;;;;;;;5052075;28;20493;-74
2022/01/11 08:59:33;;;;;;;33.50;16.92;;;;;;;;;;5084309;28;20044;-75
2022/01/11 09:02:00;;;;;;;29.80;16.23;;;;;;;;;;5071208;28;20749;-75
2022/01/11 09:04:27;;;;;;;31.92;17.83;;;;;;;;;;5087215;28;20089;-68
2022/01/11 09:06:57;;;;;;;29.75;16.70;;;;;;;;;;5086751;28;20043;-70
2022/01/11 09:09:23;;;;;;;33.38;18.08;;;;;;;;;;5084675;28;20059;-70
2022/01/11 09:11:51;;;;;;;31.85;17.95;;;;;;;;;;5068106;28;20051;-73
2022/01/11 09:14:17;;;;;;;30.77;17.25;;;;;;;;;;5086891;28;20046;-70
2022/01/11 09:16:43;;;;;;;27.80;15.23;;;0.90;99.90;;;;;;5087673;28;20455;-72
2022/01/11 09:19:09;;;;;;;32.05;17.80;;;0.90;99.90;;;;;;5069437;28;20186;-68
2022/01/11 09:21:35;;;;;;;28.52;16.02;;;0.70;99.90;;;;;;5087046;28;20048;-71
2022/01/11 09:24:02;;;;;;;34.35;17.23;;;0.70;99.90;;;;;;5085831;28;20044;-72
2022/01/11 09:26:28;;;;;;;32.30;17.92;;;0.80;99.90;;;;;;5060288;28;20169;-72
2022/01/11 09:28:53;;;;;;;37.35;18.90;;;0.90;99.90;;;;;;5081315;28;20135;-73
2022/01/11 09:31:19;;;;;;;31.73;17.33;;;1.10;99.90;;;;;;5072452;28;20150;-72
2022/01/11 09:33:45;;;;;;;31.13;17.45;;;0.60;99.90;;;;;;5087537;28;20062;-73
2022/01/11 09:36:10;;;;;;;39.15;20.55;;;0.90;99.90;;;;;;5099512;28;20048;-73
2022/01/11 09:38:36;;;;;;;36.72;18.63;;;1.20;99.90;;;;;;5086039;28;20052;-73
2022/01/11 09:41:02;;;;;;;34.67;18.98;;;0.80;99.90;;;;;;5097061;28;20048;-71
2022/01/11 09:43:29;;;;;;;39.15;18.33;;;0.80;99.90;;;;;;5085592;28;20052;-73
2022/01/11 09:45:56;;;;;;;40.45;20.95;;;0.80;99.90;;;;;;5068810;28;20126;-72
2022/01/11 09:48:24;;;;;;;38.75;19.33;;;0.90;99.90;;;;;;5090935;28;20047;-68
2022/01/11 09:53:40;;;;;;;39.17;20.92;;;0.90;99.90;;;;;;5085018;28;20043;-73
2022/01/11 09:56:08;;;;;;;38.70;20.17;;;0.80;99.90;;;;;;5092922;28;20536;-70
2022/01/11 09:58:34;;;;;;;36.03;20.90;;;0.90;99.90;;;;;;5087548;28;20040;-70
2022/01/11 10:01:00;;;;;;;32.75;18.50;;;0.80;99.90;;;;;;5100277;28;20044;-72
2022/01/11 10:03:26;;;;;;;33.33;18.40;;;0.80;99.90;;;;;;5094340;28;20051;-71
2022/01/11 10:05:52;;;;;;;38.33;21.20;;;;;;;;;;5092580;28;20044;-75
2022/01/11 10:08:23;;;;;;;37.80;20.13;;;;;;;;;;5093478;28;20121;-69
2022/01/11 10:10:52;;;;;;;38.67;20.02;;;;;;;;;;5087717;28;20075;-73
2022/01/11 10:13:31;;;;;;;40.00;21.05;;;;;;;;;;5092127;28;20048;-77
2022/01/11 10:15:57;;;;;;;38.25;18.65;;;1.40;99.90;;;;;;5074440;28;20044;-72
2022/01/11 10:18:37;;;;;;;37.08;19.63;;;1.30;99.90;;;;;;5091983;28;20046;-74
2022/01/11 10:21:34;;;;;;;39.13;20.50;;;1.30;99.90;;;;;;5091392;28;20094;-75
2022/01/11 10:24:01;;;;;;;34.67;18.35;;;;;;;;;;5094659;28;20144;-75
2022/01/11 10:26:44;;;;;;;37.47;20.00;;;;;;;;;;5090774;28;20052;-75
2022/01/11 10:29:40;;;;;;;40.50;20.02;;;;;;;;;;5086196;28;20079;-75
2022/01/11 10:32:12;;;;;;;35.70;20.27;;;;;;;;;;5085281;28;20043;-75
2022/01/11 10:34:38;;;;;;;33.15;19.23;;;;;;;;;;5101408;28;20757;-75
2022/01/11 10:37:05;;;;;;;36.28;19.25;;;;;;;;;;5087910;28;20488;-75
2022/01/11 10:39:32;;;;;;;33.47;19.38;;;;;;;;;;5072618;28;20094;-76
2022/01/11 10:41:59;;;;;;;32.35;17.70;;;;;;;;;;5089758;28;20480;-74
2022/01/11 10:44:43;;;;;;;35.60;20.38;;;;;;;;;;5073069;28;20359;-74
2022/01/11 10:47:09;;;;;;;35.28;19.05;;;;;;;;;;5071586;28;20042;-74
2022/01/11 10:49:36;;;;;;;32.50;18.45;;;;;;;;;;5090869;28;20090;-74
2022/01/11 10:52:19;;;;;;;33.50;19.25;;;;;;;;;;5089886;28;20051;-74
2022/01/11 10:54:45;;;;;;;30.80;17.27;;;;;;;;;;5093813;28;20572;-74
2022/01/11 10:57:32;;;;;;;30.33;17.38;;;;;;;;;;5087580;28;20044;-74
2022/01/11 11:00:16;;;;;;;32.08;18.08;;;;;;;;;;5106832;28;20089;-74
2022/01/11 11:02:43;;;;;;;34.58;18.70;;;;;;;;;;5094434;28;20124;-74
2022/01/11 11:05:17;;;;;;;31.85;18.33;;;;;;;;;;5065823;28;20039;-80
2022/01/11 11:07:43;;;;;;;31.00;16.92;;;;;;;;;;5090812;28;20052;-73
2022/01/11 11:10:10;;;;;;;36.50;18.50;;;;;;;;;;5089192;28;20048;-72
2022/01/11 11:12:36;;;;;;;30.25;16.20;;;;;;;;;;5090183;28;20532;-72
2022/01/11 11:15:05;;;;;;;32.45;17.23;;;;;;;;;;5089055;28;20515;-73
2022/01/11 11:17:40;;;;;;;27.88;17.35;;;;;;;;;;5089221;28;20044;-72
2022/01/11 11:20:07;;;;;;;27.13;15.77;;;;;;;;;;5087015;28;20036;-73
2022/01/11 11:22:33;;;;;;;35.70;17.60;;;;;;;;;;5088548;28;20044;-73
2022/01/11 11:24:59;;;;;;;29.98;16.73;;;2.10;99.90;;;;;;5071143;28;20097;-73
2022/01/11 11:27:28;;;;;;;31.45;17.70;;;2.00;99.90;;;;;;5071684;28;20052;-73
2022/01/11 11:29:54;;;;;;;35.53;17.88;;;2.10;99.90;;;;;;5074303;28;20140;-70
2022/01/11 11:32:20;;;;;;;31.60;16.17;;;2.20;99.90;;;;;;5090837;28;20492;-72
2022/01/11 11:34:49;;;;;;;35.63;17.45;;;2.20;99.90;;;;;;5091106;28;20036;-72
2022/01/11 11:37:31;;;;;;;29.17;17.27;;;2.20;99.90;;;;;;5082517;28;20148;-71
2022/01/11 11:40:21;;;;;;;29.80;16.48;;;2.20;99.90;;;;;;5073445;28;20105;-71
2022/01/11 11:42:58;;;;;;;33.83;18.52;;;2.30;99.90;;;;;;5078078;28;20498;-72
2022/01/11 11:45:29;;;;;;;29.17;17.23;;;2.30;99.90;;;;;;5105776;28;20044;-72
2022/01/11 11:48:26;;;;;;;31.05;18.42;;;2.30;99.90;;;;;;5097705;28;20043;-73
2022/01/11 11:50:55;;;;;;;27.73;15.57;;;2.40;99.90;;;;;;5062059;28;20524;-73
2022/01/11 11:53:26;;;;;;;31.60;17.08;;;2.00;99.90;;;;;;5090755;28;20043;-73
2022/01/11 11:56:11;;;;;;;29.83;15.32;;;2.40;99.90;;;;;;5073499;28;20131;-72
2022/01/11 11:58:44;;;;;;;27.58;16.38;;;2.40;99.90;;;;;;5087610;28;20056;-72
2022/01/11 12:01:42;;;;;;;30.67;17.08;;;2.50;99.90;;;;;;5088512;28;20047;-72
2022/01/11 12:04:36;;;;;;;29.73;17.10;;;2.60;99.90;;;;;;5072784;28;20622;-72
2022/01/11 12:07:29;;;;;;;29.73;17.05;;;2.20;99.90;;;;;;5072688;28;20043;-72
2022/01/11 12:09:55;;;;;;;29.17;15.23;;;2.50;99.90;;;;;;5090780;28;20036;-72
2022/01/11 12:12:41;;;;;;;28.98;16.33;;;2.50;99.90;;;;;;5098378;28;20055;-72
2022/01/11 12:15:22;;;;;;;29.63;16.77;;;2.60;99.90;;;;;;5091874;28;20042;-72
2022/01/11 12:17:57;;;;;;;30.05;15.90;;;2.60;99.90;;;;;;5090625;28;20033;-72
2022/01/11 12:20:41;;;;;;;24.90;13.73;;;2.70;99.90;;;;;;5108369;28;20102;-72
2022/01/11 12:23:09;;;;;;;25.95;14.75;;;2.80;99.90;;;;;;5073538;28;20062;-71
2022/01/11 12:25:42;;;;;;;28.17;16.25;;;2.60;99.90;;;;;;5091197;28;20044;-75
2022/01/11 12:28:17;;;;;;;26.23;14.23;;;2.80;99.90;;;;;;5073136;28;20060;-70
2022/01/11 12:30:43;;;;;;;28.00;15.32;;;;;;;;;;5073312;28;20525;-70
2022/01/11 12:33:14;;;;;;;29.67;15.52;;;;;;;;;;5089495;28;20036;-74
2022/01/11 12:35:55;;;;;;;26.13;15.43;;;;;;;;;;5089171;28;20075;-73
2022/01/11 12:38:22;;;;;;;27.67;14.95;;;;;;;;;;5090852;28;20036;-72
2022/01/11 12:40:48;;;;;;;25.15;14.18;;;;;;;;;;5090346;28;20054;-70
2022/01/11 12:43:18;;;;;;;24.25;14.75;;;;;;;;;;5072724;28;20040;-70
2022/01/11 12:45:53;;;;;;;26.58;13.45;;;;;;;;;;5073460;28;20412;-69
2022/01/11 12:48:38;;;;;;;27.20;14.35;;;;;;;;;;5089844;28;20044;-72
2022/01/11 12:51:04;;;;;;;25.60;15.23;;;;;;;;;;5089125;28;20048;-71
2022/01/11 12:53:30;;;;;;;29.63;14.35;;;3.20;99.90;;;;;;5090374;28;20119;-72
2022/01/11 12:55:57;;;;;;;24.10;13.18;;;3.30;99.90;;;;;;5089235;28;20361;-72
2022/01/11 12:58:24;;;;;;;29.05;14.25;;;3.30;99.90;;;;;;5090132;28;20114;-70
2022/01/11 13:00:50;;;;;;;26.20;13.75;;;3.20;99.90;;;;;;5105791;28;20127;-72
2022/01/11 13:03:16;;;;;;;26.17;14.38;;;3.70;99.90;;;;;;5073089;28;20044;-74
2022/01/11 13:05:43;;;;;;;27.30;14.65;;;3.20;99.90;;;;;;5090539;28;20047;-73
2022/01/11 13:08:09;;;;;;;25.55;14.43;;;3.10;99.90;;;;;;5072822;28;20047;-72
2022/01/11 13:10:35;;;;;;;24.70;14.30;;;3.30;99.90;;;;;;5089948;28;20044;-72
2022/01/11 13:13:09;;;;;;;22.48;13.07;;;3.20;99.90;;;;;;5089194;28;20033;-72
2022/01/11 13:15:40;;;;;;;24.40;13.82;;;3.30;99.90;;;;;;5090277;28;20036;-73
2022/01/11 13:18:10;;;;;;;25.67;13.55;;;3.20;99.90;;;;;;5088912;28;20036;-72
2022/01/11 13:20:45;;;;;;;25.10;13.20;;;3.50;99.90;;;;;;5071390;28;20047;-72
2022/01/11 13:23:18;;;;;;;22.52;14.13;;;3.20;99.90;;;;;;5092829;28;20044;-71
2022/01/11 13:25:57;;;;;;;20.40;11.98;;;3.40;99.90;;;;;;5072719;28;20040;-73
2022/01/11 13:28:33;;;;;;;25.08;13.38;;;3.30;99.90;;;;;;5102762;28;20489;-73
2022/01/11 13:31:02;;;;;;;21.02;12.20;;;;;;;;;;5104319;28;20489;-73
2022/01/11 13:33:34;;;;;;;23.92;13.98;;;3.50;99.90;;;;;;5096687;28;20086;-74
2022/01/11 13:36:23;;;;;;;21.33;12.00;;;3.40;99.90;;;;;;5097845;28;20044;-74
2022/01/11 13:38:54;;;;;;;24.73;12.30;;;3.50;99.90;;;;;;5106141;28;20152;-72
2022/01/11 13:41:29;;;;;;;23.10;12.27;;;5.40;99.90;;;;;;5106388;28;20039;-75
2022/01/11 13:43:58;;;;;;;24.88;11.20;;;3.50;99.90;;;;;;5091162;28;20072;-74
2022/01/11 13:46:24;;;;;;;21.95;12.30;;;3.60;99.90;;;;;;5090679;28;20040;-74
2022/01/11 13:48:51;;;;;;;20.83;11.82;;;3.50;99.90;;;;;;5074496;28;20873;-75
2022/01/11 13:51:25;;;;;;;23.17;11.88;;;3.30;99.90;;;;;;5100973;28;20044;-76
2022/01/11 13:53:58;;;;;;;24.67;12.27;;;3.60;99.90;;;;;;5091688;28;20035;-76
2022/01/11 13:56:28;;;;;;;23.35;11.93;;;3.70;99.90;;;;;;5088962;28;20059;-78
2022/01/11 13:58:54;;;;;;;22.85;12.07;;;3.60;99.90;;;;;;5089195;28;20040;-76
2022/01/11 14:01:21;;;;;;;22.30;12.35;;;3.60;99.90;;;;;;5080066;28;20488;-76
2022/01/11 14:03:48;;;;;;;23.38;11.85;;;3.60;99.90;;;;;;5094992;28;20048;-76
2022/01/11 14:06:16;;;;;;;21.40;12.40;;;3.50;99.90;;;;;;5093276;28;20048;-80